sensor_id;sensor_type;location;lat;lon;timestamp;temperature;humidity
65876;HTU21D;52657;51.128;5.938;2023-08-06T00:00:21;19.52;68.10
65876;HTU21D;52657;51.128;5.938;2023-08-06T00:02:48;19.50;67.95
65876;HTU21D;52657;51.128;5.938;2023-08-06T00:05:15;19.44;68.08
65876;HTU21D;52657;51.128;5.938;2023-08-06T00:07:50;19.43;68.23
65876;HTU21D;52657;51.128;5.938;2023-08-06T00:10:17;19.38;68.41
65876;HTU21D;52657;51.128;5.938;2023-08-06T00:12:43;19.37;68.52
65876;HTU21D;52657;51.128;5.938;2023-08-06T00:15:10;19.37;68.45
65876;HTU21D;52657;51.128;5.938;2023-08-06T00:17:37;19.37;68.39
65876;HTU21D;52657;51.128;5.938;2023-08-06T00:20:04;19.32;68.46
65876;HTU21D;52657;51.128;5.938;2023-08-06T00:22:33;19.35;68.38
65876;HTU21D;52657;51.128;5.938;2023-08-06T00:24:59;19.28;68.43
65876;HTU21D;52657;51.128;5.938;2023-08-06T00:27:25;19.29;68.47
65876;HTU21D;52657;51.128;5.938;2023-08-06T00:29:51;19.30;68.46
65876;HTU21D;52657;51.128;5.938;2023-08-06T00:32:18;19.30;68.49
65876;HTU21D;52657;51.128;5.938;2023-08-06T00:34:47;19.30;68.44
65876;HTU21D;52657;51.128;5.938;2023-08-06T00:37:18;19.30;68.40
65876;HTU21D;52657;51.128;5.938;2023-08-06T00:39:44;19.28;68.37
65876;HTU21D;52657;51.128;5.938;2023-08-06T00:42:11;19.30;68.29
65876;HTU21D;52657;51.128;5.938;2023-08-06T00:44:37;19.29;68.30
65876;HTU21D;52657;51.128;5.938;2023-08-06T00:47:04;19.29;68.33
65876;HTU21D;52657;51.128;5.938;2023-08-06T00:49:31;19.27;68.32
65876;HTU21D;52657;51.128;5.938;2023-08-06T00:51:58;19.28;68.26
65876;HTU21D;52657;51.128;5.938;2023-08-06T00:54:25;19.28;68.14
65876;HTU21D;52657;51.128;5.938;2023-08-06T00:56:51;19.26;68.17
65876;HTU21D;52657;51.128;5.938;2023-08-06T00:59:17;19.23;68.22
65876;HTU21D;52657;51.128;5.938;2023-08-06T01:01:43;19.23;68.33
65876;HTU21D;52657;51.128;5.938;2023-08-06T01:04:10;19.18;68.49
65876;HTU21D;52657;51.128;5.938;2023-08-06T01:06:47;19.17;68.56
65876;HTU21D;52657;51.128;5.938;2023-08-06T01:12:30;19.12;68.82
65876;HTU21D;52657;51.128;5.938;2023-08-06T01:15:11;19.17;68.56
65876;HTU21D;52657;51.128;5.938;2023-08-06T01:17:40;19.08;68.84
65876;HTU21D;52657;51.128;5.938;2023-08-06T01:20:06;19.06;68.92
65876;HTU21D;52657;51.128;5.938;2023-08-06T01:22:32;19.02;69.02
65876;HTU21D;52657;51.128;5.938;2023-08-06T01:24:58;19.00;69.14
65876;HTU21D;52657;51.128;5.938;2023-08-06T01:30:06;18.99;69.16
65876;HTU21D;52657;51.128;5.938;2023-08-06T01:32:36;18.97;69.10
65876;HTU21D;52657;51.128;5.938;2023-08-06T01:35:05;18.95;69.12
65876;HTU21D;52657;51.128;5.938;2023-08-06T01:37:31;18.95;69.06
65876;HTU21D;52657;51.128;5.938;2023-08-06T01:39:57;18.95;69.00
65876;HTU21D;52657;51.128;5.938;2023-08-06T01:42:24;18.93;69.13
65876;HTU21D;52657;51.128;5.938;2023-08-06T01:44:50;18.93;69.22
65876;HTU21D;52657;51.128;5.938;2023-08-06T01:47:16;18.92;69.45
65876;HTU21D;52657;51.128;5.938;2023-08-06T01:49:42;18.91;69.61
65876;HTU21D;52657;51.128;5.938;2023-08-06T01:52:08;18.91;69.78
65876;HTU21D;52657;51.128;5.938;2023-08-06T01:54:34;18.91;69.84
65876;HTU21D;52657;51.128;5.938;2023-08-06T01:56:59;18.91;69.90
65876;HTU21D;52657;51.128;5.938;2023-08-06T01:59:25;18.92;69.82
65876;HTU21D;52657;51.128;5.938;2023-08-06T02:01:51;18.92;69.82
65876;HTU21D;52657;51.128;5.938;2023-08-06T02:04:17;18.93;69.85
65876;HTU21D;52657;51.128;5.938;2023-08-06T02:06:44;18.93;69.91
65876;HTU21D;52657;51.128;5.938;2023-08-06T02:09:10;18.93;69.94
65876;HTU21D;52657;51.128;5.938;2023-08-06T02:11:36;18.91;70.02
65876;HTU21D;52657;51.128;5.938;2023-08-06T02:14:02;18.88;70.21
65876;HTU21D;52657;51.128;5.938;2023-08-06T02:16:27;18.91;70.17
65876;HTU21D;52657;51.128;5.938;2023-08-06T02:18:53;18.92;70.08
65876;HTU21D;52657;51.128;5.938;2023-08-06T02:21:19;18.93;70.19
65876;HTU21D;52657;51.128;5.938;2023-08-06T02:23:45;18.93;70.30
65876;HTU21D;52657;51.128;5.938;2023-08-06T02:26:11;18.91;70.56
65876;HTU21D;52657;51.128;5.938;2023-08-06T02:28:36;18.89;70.68
65876;HTU21D;52657;51.128;5.938;2023-08-06T02:31:02;18.92;70.66
65876;HTU21D;52657;51.128;5.938;2023-08-06T02:33:28;18.94;70.51
65876;HTU21D;52657;51.128;5.938;2023-08-06T02:36:02;18.98;70.35
65876;HTU21D;52657;51.128;5.938;2023-08-06T02:38:32;18.98;70.40
65876;HTU21D;52657;51.128;5.938;2023-08-06T02:40:58;18.94;70.71
65876;HTU21D;52657;51.128;5.938;2023-08-06T02:43:24;18.92;70.90
65876;HTU21D;52657;51.128;5.938;2023-08-06T02:45:50;18.89;71.19
65876;HTU21D;52657;51.128;5.938;2023-08-06T02:48:16;18.88;71.25
65876;HTU21D;52657;51.128;5.938;2023-08-06T02:50:43;18.89;71.35
65876;HTU21D;52657;51.128;5.938;2023-08-06T02:53:10;18.92;71.36
65876;HTU21D;52657;51.128;5.938;2023-08-06T02:55:37;18.93;71.38
65876;HTU21D;52657;51.128;5.938;2023-08-06T02:58:07;18.89;71.48
65876;HTU21D;52657;51.128;5.938;2023-08-06T03:00:38;18.89;71.74
65876;HTU21D;52657;51.128;5.938;2023-08-06T03:03:06;18.89;71.83
65876;HTU21D;52657;51.128;5.938;2023-08-06T03:05:52;18.85;71.92
65876;HTU21D;52657;51.128;5.938;2023-08-06T03:08:20;18.81;72.03
65876;HTU21D;52657;51.128;5.938;2023-08-06T03:10:49;18.78;72.12
65876;HTU21D;52657;51.128;5.938;2023-08-06T03:13:17;18.80;72.23
65876;HTU21D;52657;51.128;5.938;2023-08-06T03:15:51;18.83;72.21
65876;HTU21D;52657;51.128;5.938;2023-08-06T03:18:17;18.80;72.33
65876;HTU21D;52657;51.128;5.938;2023-08-06T03:20:44;18.76;72.38
65876;HTU21D;52657;51.128;5.938;2023-08-06T03:23:11;18.74;72.61
65876;HTU21D;52657;51.128;5.938;2023-08-06T03:25:37;18.72;72.58
65876;HTU21D;52657;51.128;5.938;2023-08-06T03:28:03;18.69;72.66
65876;HTU21D;52657;51.128;5.938;2023-08-06T03:30:29;18.67;73.01
65876;HTU21D;52657;51.128;5.938;2023-08-06T03:32:55;18.69;73.25
65876;HTU21D;52657;51.128;5.938;2023-08-06T03:35:22;18.67;73.03
65876;HTU21D;52657;51.128;5.938;2023-08-06T03:37:47;18.59;73.22
65876;HTU21D;52657;51.128;5.938;2023-08-06T03:40:15;18.56;73.43
65876;HTU21D;52657;51.128;5.938;2023-08-06T03:42:41;18.54;73.51
65876;HTU21D;52657;51.128;5.938;2023-08-06T03:45:07;18.49;73.52
65876;HTU21D;52657;51.128;5.938;2023-08-06T03:47:33;18.46;73.65
65876;HTU21D;52657;51.128;5.938;2023-08-06T03:49:59;18.44;73.83
65876;HTU21D;52657;51.128;5.938;2023-08-06T03:52:25;18.42;74.10
65876;HTU21D;52657;51.128;5.938;2023-08-06T03:54:51;18.40;74.20
65876;HTU21D;52657;51.128;5.938;2023-08-06T03:57:17;18.36;74.21
65876;HTU21D;52657;51.128;5.938;2023-08-06T03:59:43;18.36;74.40
65876;HTU21D;52657;51.128;5.938;2023-08-06T04:02:09;18.35;74.55
65876;HTU21D;52657;51.128;5.938;2023-08-06T04:04:35;18.41;74.64
65876;HTU21D;52657;51.128;5.938;2023-08-06T04:07:01;18.40;74.55
65876;HTU21D;52657;51.128;5.938;2023-08-06T04:09:28;18.41;74.53
65876;HTU21D;52657;51.128;5.938;2023-08-06T04:11:55;18.41;74.53
65876;HTU21D;52657;51.128;5.938;2023-08-06T04:14:21;18.40;74.70
65876;HTU21D;52657;51.128;5.938;2023-08-06T04:16:47;18.39;74.67
65876;HTU21D;52657;51.128;5.938;2023-08-06T04:19:14;18.41;74.73
65876;HTU21D;52657;51.128;5.938;2023-08-06T04:21:40;18.43;74.88
65876;HTU21D;52657;51.128;5.938;2023-08-06T04:24:06;18.43;74.99
65876;HTU21D;52657;51.128;5.938;2023-08-06T04:26:32;18.46;74.99
65876;HTU21D;52657;51.128;5.938;2023-08-06T04:28:59;18.49;74.83
65876;HTU21D;52657;51.128;5.938;2023-08-06T04:31:25;18.51;74.81
65876;HTU21D;52657;51.128;5.938;2023-08-06T04:33:51;18.53;74.83
65876;HTU21D;52657;51.128;5.938;2023-08-06T04:36:16;18.55;74.67
65876;HTU21D;52657;51.128;5.938;2023-08-06T04:38:44;18.55;74.69
65876;HTU21D;52657;51.128;5.938;2023-08-06T04:41:14;18.56;74.73
65876;HTU21D;52657;51.128;5.938;2023-08-06T04:43:40;18.59;74.51
65876;HTU21D;52657;51.128;5.938;2023-08-06T04:46:05;18.58;74.43
65876;HTU21D;52657;51.128;5.938;2023-08-06T04:48:31;18.59;74.64
65876;HTU21D;52657;51.128;5.938;2023-08-06T04:50:57;18.61;74.30
65876;HTU21D;52657;51.128;5.938;2023-08-06T04:53:23;18.62;74.35
65876;HTU21D;52657;51.128;5.938;2023-08-06T04:55:49;18.66;74.47
65876;HTU21D;52657;51.128;5.938;2023-08-06T04:58:15;18.69;74.51
65876;HTU21D;52657;51.128;5.938;2023-08-06T05:00:40;18.73;74.32
65876;HTU21D;52657;51.128;5.938;2023-08-06T05:03:06;18.72;74.30
65876;HTU21D;52657;51.128;5.938;2023-08-06T05:05:32;18.71;74.19
65876;HTU21D;52657;51.128;5.938;2023-08-06T05:07:58;18.69;74.06
65876;HTU21D;52657;51.128;5.938;2023-08-06T05:10:25;18.67;74.26
65876;HTU21D;52657;51.128;5.938;2023-08-06T05:12:51;18.66;74.35
65876;HTU21D;52657;51.128;5.938;2023-08-06T05:15:20;18.72;74.25
65876;HTU21D;52657;51.128;5.938;2023-08-06T05:17:46;18.72;74.48
65876;HTU21D;52657;51.128;5.938;2023-08-06T05:20:12;18.73;74.55
65876;HTU21D;52657;51.128;5.938;2023-08-06T05:22:37;18.73;74.51
65876;HTU21D;52657;51.128;5.938;2023-08-06T05:25:04;18.71;74.54
65876;HTU21D;52657;51.128;5.938;2023-08-06T05:27:30;18.70;74.60
65876;HTU21D;52657;51.128;5.938;2023-08-06T05:29:56;18.70;74.62
65876;HTU21D;52657;51.128;5.938;2023-08-06T05:32:22;18.70;74.60
65876;HTU21D;52657;51.128;5.938;2023-08-06T05:34:48;18.70;74.57
65876;HTU21D;52657;51.128;5.938;2023-08-06T05:37:14;18.72;74.58
65876;HTU21D;52657;51.128;5.938;2023-08-06T05:39:39;18.77;74.64
65876;HTU21D;52657;51.128;5.938;2023-08-06T05:42:06;18.81;74.60
65876;HTU21D;52657;51.128;5.938;2023-08-06T05:44:32;18.84;74.52
65876;HTU21D;52657;51.128;5.938;2023-08-06T05:46:58;18.88;74.30
65876;HTU21D;52657;51.128;5.938;2023-08-06T05:49:24;18.91;74.27
65876;HTU21D;52657;51.128;5.938;2023-08-06T05:51:50;18.95;74.19
65876;HTU21D;52657;51.128;5.938;2023-08-06T05:54:19;18.98;73.98
65876;HTU21D;52657;51.128;5.938;2023-08-06T05:56:45;19.00;73.61
65876;HTU21D;52657;51.128;5.938;2023-08-06T05:59:11;19.01;73.37
65876;HTU21D;52657;51.128;5.938;2023-08-06T06:01:36;19.02;73.35
65876;HTU21D;52657;51.128;5.938;2023-08-06T06:04:03;19.05;73.45
65876;HTU21D;52657;51.128;5.938;2023-08-06T06:06:29;19.06;73.44
65876;HTU21D;52657;51.128;5.938;2023-08-06T06:08:54;19.10;73.43
65876;HTU21D;52657;51.128;5.938;2023-08-06T06:11:20;19.11;73.54
65876;HTU21D;52657;51.128;5.938;2023-08-06T06:13:51;19.13;73.71
65876;HTU21D;52657;51.128;5.938;2023-08-06T06:16:17;19.16;73.61
65876;HTU21D;52657;51.128;5.938;2023-08-06T06:18:43;19.13;73.39
65876;HTU21D;52657;51.128;5.938;2023-08-06T06:21:12;19.09;73.71
65876;HTU21D;52657;51.128;5.938;2023-08-06T06:23:38;19.10;73.99
65876;HTU21D;52657;51.128;5.938;2023-08-06T06:26:04;19.13;73.92
65876;HTU21D;52657;51.128;5.938;2023-08-06T06:28:30;19.13;74.04
65876;HTU21D;52657;51.128;5.938;2023-08-06T06:31:01;19.20;74.20
65876;HTU21D;52657;51.128;5.938;2023-08-06T06:33:28;19.24;74.28
65876;HTU21D;52657;51.128;5.938;2023-08-06T06:35:56;19.29;74.18
65876;HTU21D;52657;51.128;5.938;2023-08-06T06:38:22;19.31;73.92
65876;HTU21D;52657;51.128;5.938;2023-08-06T06:40:57;19.29;73.81
65876;HTU21D;52657;51.128;5.938;2023-08-06T06:43:23;19.26;73.99
65876;HTU21D;52657;51.128;5.938;2023-08-06T06:45:56;19.26;73.76
65876;HTU21D;52657;51.128;5.938;2023-08-06T06:48:24;19.21;74.06
65876;HTU21D;52657;51.128;5.938;2023-08-06T06:50:50;19.22;74.23
65876;HTU21D;52657;51.128;5.938;2023-08-06T06:53:16;19.18;74.01
65876;HTU21D;52657;51.128;5.938;2023-08-06T06:55:42;19.09;73.84
65876;HTU21D;52657;51.128;5.938;2023-08-06T06:58:08;19.00;74.62
65876;HTU21D;52657;51.128;5.938;2023-08-06T07:00:38;19.06;74.88
65876;HTU21D;52657;51.128;5.938;2023-08-06T07:03:04;19.12;74.76
65876;HTU21D;52657;51.128;5.938;2023-08-06T07:05:30;19.10;74.65
65876;HTU21D;52657;51.128;5.938;2023-08-06T07:07:56;19.09;74.79
65876;HTU21D;52657;51.128;5.938;2023-08-06T07:10:22;19.09;74.87
65876;HTU21D;52657;51.128;5.938;2023-08-06T07:12:48;18.99;74.74
65876;HTU21D;52657;51.128;5.938;2023-08-06T07:15:14;19.02;74.16
65876;HTU21D;52657;51.128;5.938;2023-08-06T07:17:39;18.84;74.69
65876;HTU21D;52657;51.128;5.938;2023-08-06T07:20:06;18.77;75.02
65876;HTU21D;52657;51.128;5.938;2023-08-06T07:22:32;18.82;75.04
65876;HTU21D;52657;51.128;5.938;2023-08-06T07:24:58;18.78;75.11
65876;HTU21D;52657;51.128;5.938;2023-08-06T07:27:24;18.83;75.31
65876;HTU21D;52657;51.128;5.938;2023-08-06T07:29:50;18.92;75.31
65876;HTU21D;52657;51.128;5.938;2023-08-06T07:32:16;18.92;75.18
65876;HTU21D;52657;51.128;5.938;2023-08-06T07:34:42;18.96;75.28
65876;HTU21D;52657;51.128;5.938;2023-08-06T07:37:08;19.07;75.36
65876;HTU21D;52657;51.128;5.938;2023-08-06T07:39:33;19.10;75.05
65876;HTU21D;52657;51.128;5.938;2023-08-06T07:41:59;19.16;75.29
65876;HTU21D;52657;51.128;5.938;2023-08-06T07:44:25;19.27;75.31
65876;HTU21D;52657;51.128;5.938;2023-08-06T07:46:51;19.30;75.00
65876;HTU21D;52657;51.128;5.938;2023-08-06T07:49:17;19.32;74.96
65876;HTU21D;52657;51.128;5.938;2023-08-06T07:51:42;19.37;74.99
65876;HTU21D;52657;51.128;5.938;2023-08-06T07:54:09;19.43;74.86
65876;HTU21D;52657;51.128;5.938;2023-08-06T07:56:34;19.50;74.69
65876;HTU21D;52657;51.128;5.938;2023-08-06T07:59:02;19.54;74.28
65876;HTU21D;52657;51.128;5.938;2023-08-06T08:01:28;19.51;74.14
65876;HTU21D;52657;51.128;5.938;2023-08-06T08:03:53;19.46;74.12
65876;HTU21D;52657;51.128;5.938;2023-08-06T08:06:19;19.37;73.40
65876;HTU21D;52657;51.128;5.938;2023-08-06T08:08:45;19.23;72.51
65876;HTU21D;52657;51.128;5.938;2023-08-06T08:11:11;19.02;72.88
65876;HTU21D;52657;51.128;5.938;2023-08-06T08:13:37;18.88;72.94
65876;HTU21D;52657;51.128;5.938;2023-08-06T08:16:02;18.79;73.15
65876;HTU21D;52657;51.128;5.938;2023-08-06T08:18:28;18.72;73.25
65876;HTU21D;52657;51.128;5.938;2023-08-06T08:20:55;18.68;73.26
65876;HTU21D;52657;51.128;5.938;2023-08-06T08:23:21;18.67;73.23
65876;HTU21D;52657;51.128;5.938;2023-08-06T08:25:46;18.67;73.32
65876;HTU21D;52657;51.128;5.938;2023-08-06T08:28:12;18.64;73.31
65876;HTU21D;52657;51.128;5.938;2023-08-06T08:30:40;18.61;73.34
65876;HTU21D;52657;51.128;5.938;2023-08-06T08:33:06;18.54;73.05
65876;HTU21D;52657;51.128;5.938;2023-08-06T08:35:34;18.49;73.28
65876;HTU21D;52657;51.128;5.938;2023-08-06T08:38:00;18.44;73.47
65876;HTU21D;52657;51.128;5.938;2023-08-06T08:40:34;18.40;73.71
65876;HTU21D;52657;51.128;5.938;2023-08-06T08:43:04;18.41;73.68
65876;HTU21D;52657;51.128;5.938;2023-08-06T08:45:36;18.42;73.81
65876;HTU21D;52657;51.128;5.938;2023-08-06T08:48:05;18.41;73.51
65876;HTU21D;52657;51.128;5.938;2023-08-06T08:50:31;18.42;73.28
65876;HTU21D;52657;51.128;5.938;2023-08-06T08:52:57;18.38;73.63
65876;HTU21D;52657;51.128;5.938;2023-08-06T08:55:23;18.37;73.90
65876;HTU21D;52657;51.128;5.938;2023-08-06T08:57:50;18.36;74.11
65876;HTU21D;52657;51.128;5.938;2023-08-06T09:00:16;18.35;73.77
65876;HTU21D;52657;51.128;5.938;2023-08-06T09:02:44;18.35;74.18
65876;HTU21D;52657;51.128;5.938;2023-08-06T09:05:12;18.38;74.10
65876;HTU21D;52657;51.128;5.938;2023-08-06T09:07:42;18.41;74.00
65876;HTU21D;52657;51.128;5.938;2023-08-06T09:10:14;18.44;73.94
65876;HTU21D;52657;51.128;5.938;2023-08-06T09:12:44;18.40;73.75
65876;HTU21D;52657;51.128;5.938;2023-08-06T09:15:10;18.43;73.54
65876;HTU21D;52657;51.128;5.938;2023-08-06T09:17:37;18.37;73.82
65876;HTU21D;52657;51.128;5.938;2023-08-06T09:20:13;18.34;73.36
65876;HTU21D;52657;51.128;5.938;2023-08-06T09:22:39;18.32;73.18
65876;HTU21D;52657;51.128;5.938;2023-08-06T09:25:07;18.28;73.44
65876;HTU21D;52657;51.128;5.938;2023-08-06T09:27:37;18.28;73.49
65876;HTU21D;52657;51.128;5.938;2023-08-06T09:30:05;18.25;73.50
65876;HTU21D;52657;51.128;5.938;2023-08-06T09:33:02;18.24;73.83
65876;HTU21D;52657;51.128;5.938;2023-08-06T09:35:31;18.26;74.09
65876;HTU21D;52657;51.128;5.938;2023-08-06T09:38:08;18.34;74.22
65876;HTU21D;52657;51.128;5.938;2023-08-06T09:40:36;18.37;74.31
65876;HTU21D;52657;51.128;5.938;2023-08-06T09:43:03;18.38;74.37
65876;HTU21D;52657;51.128;5.938;2023-08-06T09:45:36;18.44;74.32
65876;HTU21D;52657;51.128;5.938;2023-08-06T09:48:07;18.52;73.88
65876;HTU21D;52657;51.128;5.938;2023-08-06T09:50:35;18.54;73.86
65876;HTU21D;52657;51.128;5.938;2023-08-06T09:53:06;18.57;73.93
65876;HTU21D;52657;51.128;5.938;2023-08-06T09:55:34;18.61;73.69
65876;HTU21D;52657;51.128;5.938;2023-08-06T09:58:01;18.66;73.80
65876;HTU21D;52657;51.128;5.938;2023-08-06T10:00:27;18.69;73.84
65876;HTU21D;52657;51.128;5.938;2023-08-06T10:02:55;18.77;73.67
65876;HTU21D;52657;51.128;5.938;2023-08-06T10:05:23;18.81;73.44
65876;HTU21D;52657;51.128;5.938;2023-08-06T10:07:51;18.86;73.51
65876;HTU21D;52657;51.128;5.938;2023-08-06T10:10:19;18.93;73.84
65876;HTU21D;52657;51.128;5.938;2023-08-06T10:12:52;19.01;73.45
65876;HTU21D;52657;51.128;5.938;2023-08-06T10:15:25;19.08;73.55
65876;HTU21D;52657;51.128;5.938;2023-08-06T10:17:55;19.07;73.15
65876;HTU21D;52657;51.128;5.938;2023-08-06T10:20:22;19.08;72.93
65876;HTU21D;52657;51.128;5.938;2023-08-06T10:23:05;19.06;72.83
65876;HTU21D;52657;51.128;5.938;2023-08-06T10:25:40;19.12;73.31
65876;HTU21D;52657;51.128;5.938;2023-08-06T10:28:08;19.15;73.22
65876;HTU21D;52657;51.128;5.938;2023-08-06T10:30:42;19.18;73.33
65876;HTU21D;52657;51.128;5.938;2023-08-06T10:33:10;19.25;73.12
65876;HTU21D;52657;51.128;5.938;2023-08-06T10:38:08;19.23;72.72
65876;HTU21D;52657;51.128;5.938;2023-08-06T10:40:36;19.27;72.64
65876;HTU21D;52657;51.128;5.938;2023-08-06T10:43:03;19.25;72.34
65876;HTU21D;52657;51.128;5.938;2023-08-06T10:45:34;19.25;72.48
65876;HTU21D;52657;51.128;5.938;2023-08-06T10:48:04;19.29;72.67
65876;HTU21D;52657;51.128;5.938;2023-08-06T10:50:30;19.36;72.29
65876;HTU21D;52657;51.128;5.938;2023-08-06T10:52:57;19.40;72.29
65876;HTU21D;52657;51.128;5.938;2023-08-06T10:55:28;19.43;71.80
65876;HTU21D;52657;51.128;5.938;2023-08-06T10:57:55;19.35;71.85
65876;HTU21D;52657;51.128;5.938;2023-08-06T11:00:23;19.37;72.19
65876;HTU21D;52657;51.128;5.938;2023-08-06T11:02:53;19.41;71.78
65876;HTU21D;52657;51.128;5.938;2023-08-06T11:05:19;19.38;71.86
65876;HTU21D;52657;51.128;5.938;2023-08-06T11:07:45;19.37;72.01
65876;HTU21D;52657;51.128;5.938;2023-08-06T11:10:12;19.40;71.88
65876;HTU21D;52657;51.128;5.938;2023-08-06T11:12:39;19.37;71.82
65876;HTU21D;52657;51.128;5.938;2023-08-06T11:15:05;19.39;72.15
65876;HTU21D;52657;51.128;5.938;2023-08-06T11:17:33;19.44;71.82
65876;HTU21D;52657;51.128;5.938;2023-08-06T11:20:01;19.39;71.90
65876;HTU21D;52657;51.128;5.938;2023-08-06T11:22:27;19.37;72.33
65876;HTU21D;52657;51.128;5.938;2023-08-06T11:24:54;19.37;72.16
65876;HTU21D;52657;51.128;5.938;2023-08-06T11:27:20;19.40;72.53
65876;HTU21D;52657;51.128;5.938;2023-08-06T11:29:46;19.44;72.42
65876;HTU21D;52657;51.128;5.938;2023-08-06T11:32:12;19.43;72.22
65876;HTU21D;52657;51.128;5.938;2023-08-06T11:34:39;19.39;72.12
65876;HTU21D;52657;51.128;5.938;2023-08-06T11:37:06;19.35;72.34
65876;HTU21D;52657;51.128;5.938;2023-08-06T11:39:37;19.36;72.51
65876;HTU21D;52657;51.128;5.938;2023-08-06T11:42:07;19.36;72.52
65876;HTU21D;52657;51.128;5.938;2023-08-06T11:44:51;19.38;72.63
65876;HTU21D;52657;51.128;5.938;2023-08-06T11:48:00;19.33;72.27
65876;HTU21D;52657;51.128;5.938;2023-08-06T11:50:41;19.31;72.70
65876;HTU21D;52657;51.128;5.938;2023-08-06T11:54:18;19.40;73.14
65876;HTU21D;52657;51.128;5.938;2023-08-06T11:57:11;19.46;73.03
65876;HTU21D;52657;51.128;5.938;2023-08-06T11:59:38;19.55;73.05
65876;HTU21D;52657;51.128;5.938;2023-08-06T12:02:10;19.61;73.11
65876;HTU21D;52657;51.128;5.938;2023-08-06T12:05:20;19.59;72.76
65876;HTU21D;52657;51.128;5.938;2023-08-06T12:08:45;19.63;73.04
65876;HTU21D;52657;51.128;5.938;2023-08-06T12:15:05;19.90;72.96
65876;HTU21D;52657;51.128;5.938;2023-08-06T12:17:52;19.96;72.32
65876;HTU21D;52657;51.128;5.938;2023-08-06T12:23:10;20.02;71.99
65876;HTU21D;52657;51.128;5.938;2023-08-06T12:25:36;20.05;71.80
65876;HTU21D;52657;51.128;5.938;2023-08-06T12:28:02;20.11;71.92
65876;HTU21D;52657;51.128;5.938;2023-08-06T12:30:31;20.16;71.62
65876;HTU21D;52657;51.128;5.938;2023-08-06T12:33:05;20.16;70.97
65876;HTU21D;52657;51.128;5.938;2023-08-06T12:35:42;20.17;70.59
65876;HTU21D;52657;51.128;5.938;2023-08-06T12:38:08;20.15;70.88
65876;HTU21D;52657;51.128;5.938;2023-08-06T12:40:41;20.16;70.52
65876;HTU21D;52657;51.128;5.938;2023-08-06T12:43:12;20.20;70.61
65876;HTU21D;52657;51.128;5.938;2023-08-06T12:45:38;20.27;70.39
65876;HTU21D;52657;51.128;5.938;2023-08-06T12:48:07;20.28;70.46
65876;HTU21D;52657;51.128;5.938;2023-08-06T12:50:33;20.19;69.78
65876;HTU21D;52657;51.128;5.938;2023-08-06T12:53:02;20.14;69.82
65876;HTU21D;52657;51.128;5.938;2023-08-06T12:55:35;20.13;69.49
65876;HTU21D;52657;51.128;5.938;2023-08-06T12:58:11;20.11;69.20
65876;HTU21D;52657;51.128;5.938;2023-08-06T13:00:57;20.10;69.03
65876;HTU21D;52657;51.128;5.938;2023-08-06T13:03:59;20.11;69.04
65876;HTU21D;52657;51.128;5.938;2023-08-06T13:06:52;20.16;68.85
65876;HTU21D;52657;51.128;5.938;2023-08-06T13:09:29;20.17;68.89
65876;HTU21D;52657;51.128;5.938;2023-08-06T13:15:53;20.25;68.42
65876;HTU21D;52657;51.128;5.938;2023-08-06T13:18:22;20.22;68.71
65876;HTU21D;52657;51.128;5.938;2023-08-06T13:21:01;20.27;68.49
65876;HTU21D;52657;51.128;5.938;2023-08-06T13:23:27;20.31;68.76
65876;HTU21D;52657;51.128;5.938;2023-08-06T13:26:01;20.39;68.69
65876;HTU21D;52657;51.128;5.938;2023-08-06T13:28:34;20.48;68.18
65876;HTU21D;52657;51.128;5.938;2023-08-06T13:31:18;20.49;67.74
65876;HTU21D;52657;51.128;5.938;2023-08-06T13:33:49;20.58;68.15
65876;HTU21D;52657;51.128;5.938;2023-08-06T13:36:21;20.63;67.49
65876;HTU21D;52657;51.128;5.938;2023-08-06T13:38:53;20.66;67.00
65876;HTU21D;52657;51.128;5.938;2023-08-06T13:41:48;20.73;66.78
65876;HTU21D;52657;51.128;5.938;2023-08-06T13:44:31;20.77;66.83
65876;HTU21D;52657;51.128;5.938;2023-08-06T13:47:03;20.84;67.50
65876;HTU21D;52657;51.128;5.938;2023-08-06T13:49:29;20.86;66.97
65876;HTU21D;52657;51.128;5.938;2023-08-06T13:51:55;20.83;66.49
65876;HTU21D;52657;51.128;5.938;2023-08-06T13:54:21;20.80;66.34
65876;HTU21D;52657;51.128;5.938;2023-08-06T13:56:47;20.80;66.24
65876;HTU21D;52657;51.128;5.938;2023-08-06T13:59:12;20.80;66.12
65876;HTU21D;52657;51.128;5.938;2023-08-06T14:01:39;20.80;66.36
65876;HTU21D;52657;51.128;5.938;2023-08-06T14:04:06;20.86;66.50
65876;HTU21D;52657;51.128;5.938;2023-08-06T14:06:31;20.93;66.17
65876;HTU21D;52657;51.128;5.938;2023-08-06T14:08:57;20.99;65.93
65876;HTU21D;52657;51.128;5.938;2023-08-06T14:11:23;20.91;65.88
65876;HTU21D;52657;51.128;5.938;2023-08-06T14:13:48;20.86;65.95
65876;HTU21D;52657;51.128;5.938;2023-08-06T14:16:14;20.85;66.12
65876;HTU21D;52657;51.128;5.938;2023-08-06T14:18:40;20.93;66.18
65876;HTU21D;52657;51.128;5.938;2023-08-06T14:21:06;20.96;65.77
65876;HTU21D;52657;51.128;5.938;2023-08-06T14:23:32;20.98;65.88
65876;HTU21D;52657;51.128;5.938;2023-08-06T14:25:58;20.93;65.91
65876;HTU21D;52657;51.128;5.938;2023-08-06T14:28:24;20.91;66.29
65876;HTU21D;52657;51.128;5.938;2023-08-06T14:30:50;20.88;66.77
65876;HTU21D;52657;51.128;5.938;2023-08-06T14:33:16;20.84;66.91
65876;HTU21D;52657;51.128;5.938;2023-08-06T14:35:41;20.78;67.22
65876;HTU21D;52657;51.128;5.938;2023-08-06T14:38:07;20.75;67.61
65876;HTU21D;52657;51.128;5.938;2023-08-06T14:40:33;20.77;67.57
65876;HTU21D;52657;51.128;5.938;2023-08-06T14:43:06;20.75;67.79
65876;HTU21D;52657;51.128;5.938;2023-08-06T14:45:32;20.73;67.72
65876;HTU21D;52657;51.128;5.938;2023-08-06T14:47:58;20.64;67.04
65876;HTU21D;52657;51.128;5.938;2023-08-06T14:50:24;20.56;67.07
65876;HTU21D;52657;51.128;5.938;2023-08-06T14:52:50;20.49;67.44
65876;HTU21D;52657;51.128;5.938;2023-08-06T14:55:25;20.46;67.43
65876;HTU21D;52657;51.128;5.938;2023-08-06T14:57:52;20.36;67.65
65876;HTU21D;52657;51.128;5.938;2023-08-06T15:00:19;20.34;67.82
65876;HTU21D;52657;51.128;5.938;2023-08-06T15:02:46;20.33;67.78
65876;HTU21D;52657;51.128;5.938;2023-08-06T15:05:12;20.29;68.00
65876;HTU21D;52657;51.128;5.938;2023-08-06T15:07:37;20.32;68.10
65876;HTU21D;52657;51.128;5.938;2023-08-06T15:10:05;20.33;68.20
65876;HTU21D;52657;51.128;5.938;2023-08-06T15:12:32;20.40;68.51
65876;HTU21D;52657;51.128;5.938;2023-08-06T15:14:58;20.44;68.23
65876;HTU21D;52657;51.128;5.938;2023-08-06T15:17:26;20.45;68.06
65876;HTU21D;52657;51.128;5.938;2023-08-06T15:19:52;20.45;67.99
65876;HTU21D;52657;51.128;5.938;2023-08-06T15:22:18;20.44;67.85
65876;HTU21D;52657;51.128;5.938;2023-08-06T15:24:44;20.42;67.94
65876;HTU21D;52657;51.128;5.938;2023-08-06T15:27:11;20.34;68.11
65876;HTU21D;52657;51.128;5.938;2023-08-06T15:29:40;20.26;68.39
65876;HTU21D;52657;51.128;5.938;2023-08-06T15:32:06;20.27;68.44
65876;HTU21D;52657;51.128;5.938;2023-08-06T15:34:31;20.35;68.55
65876;HTU21D;52657;51.128;5.938;2023-08-06T15:36:57;20.44;68.29
65876;HTU21D;52657;51.128;5.938;2023-08-06T15:39:23;20.47;67.94
65876;HTU21D;52657;51.128;5.938;2023-08-06T15:41:49;20.39;67.39